Flight Track Log - Related Links

Times and Time Zones

All times are in EDT time to prevent confusion due to time zone crossing. See the ASQ5958 flight status page for this flight to view local times or setup timezone preferences in your user account.

Time Position Orientation Groundspeed Altitude Reporting Facility
EDT Latitude Longitude Course Direction KTS MPH feet Rate Location/Type
Fri 07:47:47 PM 40.5033 -80.2772 269° West 166 191 1,800  Level FAA TRACON SMA TRACON (SMA)
Fri 07:48:07 PM 40.5031 -80.2947 269° West 159 183 2,500 1,800 Climbing FAA TRACON SMA TRACON (SMA)
Fri 07:48:27 PM 40.5031 -80.3136 270° West 172 198 3,000 2,400 Climbing FAA TRACON SMA TRACON (SMA)
Fri 07:48:47 PM 40.5097 -80.3400 288° West 198 228 4,100 2,700 Climbing FAA TRACON SMA TRACON (SMA)
Fri 07:49:07 PM 40.5203 -80.3575 308° West 204 235 4,800 2,049 Climbing FAA TRACON SMA TRACON (SMA)
Fri 07:49:28 PM 40.5364 -80.3803 313° West 225 259 5,500 2,100 Climbing FAA TRACON SMA TRACON (SMA)
Fri 07:49:47 PM 40.5494 -80.4000 311° West 238 274 6,200 2,154 Climbing FAA TRACON SMA TRACON (SMA)
Fri 07:50:07 PM 40.5631 -80.4208 311° West 242 278 6,900 2,550 Climbing FAA TRACON SMA TRACON (SMA)
Fri 07:50:27 PM 40.5800 -80.4472 310° West 245 282 7,900 2,550 Climbing FAA TRACON SMA TRACON (SMA)
Fri 07:50:47 PM 40.5939 -80.4692 310° West 250 288 8,600 2,049 Climbing FAA TRACON SMA TRACON (SMA)
Fri 07:51:08 PM 40.6081 -80.4911 310° West 253 291 9,300 2,100 Climbing FAA TRACON SMA TRACON (SMA)
Fri 07:51:27 PM 40.6225 -80.5133 311° West 257 296 10,000 2,000 Climbing FAA TRACON SMA TRACON (SMA)
Fri 07:51:47 PM 40.6356 -80.5461 298° West 268 308 10,600 1,500 Climbing FAA TRACON SMA TRACON (SMA)
Fri 07:52:07 PM 40.6383 -80.5756 277° West 268 308 11,000 1,200 Climbing FAA TRACON SMA TRACON (SMA)
Fri 07:52:27 PM 40.6411 -80.6061 277° West 279 321 11,400 878 Climbing FAA TRACON SMA TRACON (SMA)
Fri 07:52:48 PM 40.6456 -80.6472 278° West 301 346 11,600 600 Climbing FAA TRACON SMA TRACON (SMA)
Fri 07:53:07 PM 40.6497 -80.6817 279° West 315 362 11,800 923 Climbing FAA TRACON SMA TRACON (SMA)
Fri 07:53:27 PM 40.6542 -80.7178 279° West 321 369 12,200 1,500 Climbing FAA TRACON SMA TRACON (SMA)
Fri 07:53:47 PM 40.6594 -80.7633 279° West 327 376 12,800 1,650 Climbing FAA TRACON SMA TRACON (SMA)
Fri 07:54:07 PM 40.6664 -80.7958 286° West 328 377 13,300 1,800 Climbing FAA TRACON SMA TRACON (SMA)
Fri 07:54:27 PM 40.6692 -80.8458 274° West 330 380 14,000 1,800 Climbing FAA TRACON SMA TRACON (SMA)
Fri 07:54:47 PM 40.6736 -80.8828 279° West 330 380 14,500 1,650 Climbing FAA TRACON SMA TRACON (SMA)
Fri 07:55:07 PM 40.6781 -80.9197 279° West 331 381 15,100 1,800 Climbing FAA TRACON SMA TRACON (SMA)
Fri 07:55:27 PM 40.6836 -80.9658 279° West 331 381 15,700 1,200 Climbing FAA TRACON SMA TRACON (SMA)
Fri 07:55:47 PM 40.6847 -80.9750 279° West 330 380 15,900 1,545 Climbing FAA TRACON SMA TRACON (SMA)
Fri 07:56:33 PM 40.6978 -81.0761 280° West 335 386 17,400 1,868 Climbing Cleveland Center
Fri 07:57:33 PM 40.7139 -81.1967 280° West 329 379 19,200 1,750 Climbing Cleveland Center
Fri 07:58:33 PM 40.7278 -81.3147 279° West 329 379 20,900 1,600 Climbing Cleveland Center
Fri 07:59:33 PM 40.7436 -81.4408 279° West 329 379 22,400 1,550 Climbing Cleveland Center
Fri 08:00:33 PM 40.7781 -81.5539 292° West 329 379 24,000 1,550 Climbing Cleveland Center
Fri 08:01:33 PM 40.8000 -81.6667 284° West 328 377 25,500 1,500 Climbing Cleveland Center
Fri 08:02:33 PM 40.8133 -81.7792 279° West 321 369 27,000 1,250 Climbing Cleveland Center
Fri 08:03:33 PM 40.8225 -81.8947 276° West 316 364 28,000 1,059 Climbing Cleveland Center
Fri 08:04:32 PM 40.8378 -82.0103 280° West 316 364 29,100 1,008 Climbing Cleveland Center
Fri 08:05:32 PM 40.8469 -82.1175 276° West 316 364 30,000 942 Climbing Cleveland Center
Fri 08:06:33 PM 40.8597 -82.2358 278° West 326 375 31,000 1,041 Climbing Cleveland Center
Fri 08:07:33 PM 40.8706 -82.3542 277° West 326 375 32,100 1,050 Climbing Cleveland Center
Fri 08:08:33 PM 40.8833 -82.4725 278° West 333 383 33,100 950 Climbing Cleveland Center
Fri 08:09:33 PM 40.8936 -82.5939 276° West 333 383 34,000 450 Climbing Cleveland Center
Fri 08:10:33 PM 40.9061 -82.7178 278° West 340 391 34,000 450 Level Cleveland Center
Fri 08:11:33 PM 40.9181 -82.8556 277° West 345 397 34,900 950 Climbing Cleveland Center
Fri 08:12:33 PM 40.9319 -82.9825 278° West 350 403 35,900 555 Climbing Cleveland Center
Fri 08:13:32 PM 40.9419 -83.1067 276° West 350 403 36,000 50 Climbing Cleveland Center
Fri 08:14:33 PM 40.9558 -83.2197 279° West 350 403 36,000  Level Cleveland Center
Fri 08:15:33 PM 40.9694 -83.3581 277° West 366 421 36,000  Level Cleveland Center
Fri 08:16:33 PM 40.9825 -83.4961 277° West 373 429 36,000  Level Cleveland Center
Fri 08:17:32 PM 40.9933 -83.6422 276° West 390 449 36,000  Level Cleveland Center
Fri 08:18:33 PM 41.0078 -83.7972 277° West 390 449 36,000  Level Cleveland Center
Fri 08:19:33 PM 41.0183 -83.9436 276° West 395 455 36,000  Level Cleveland Center
Fri 08:20:33 PM 41.0325 -84.0931 277° West 401 461 36,000  Level Cleveland Center
Fri 08:21:19 PM 41.0425 -84.2014 277° West 406 467 36,000  Level Chicago Center
Fri 08:22:21 PM 41.0547 -84.3511 276° West 409 471 36,000  Level Chicago Center
Fri 08:23:23 PM 41.0664 -84.4986 276° West 404 465 36,000  Level Chicago Center
Fri 08:24:25 PM 41.0781 -84.6469 276° West 404 465 36,000  Level Chicago Center
Fri 08:25:27 PM 41.0900 -84.7939 276° West 403 464 36,000  Level Chicago Center
Fri 08:26:29 PM 41.1017 -84.9403 276° West 399 459 36,000  Level Chicago Center
Fri 08:27:31 PM 41.1133 -85.1158 275° West 397 457 36,000  Level Chicago Center
Fri 08:28:33 PM 41.1244 -85.2611 276° West 395 455 36,000  Level Chicago Center
Fri 08:29:35 PM 41.1344 -85.4072 275° West 396 456 36,000  Level Chicago Center
Fri 08:30:37 PM 41.1456 -85.5503 276° West 391 450 36,000  Level Chicago Center
Fri 08:31:39 PM 41.1558 -85.6958 275° West 394 453 36,000  Level Chicago Center
Fri 08:32:41 PM 41.1656 -85.8392 275° West 391 450 36,000  Level Chicago Center
Fri 08:33:43 PM 41.1756 -85.9836 275° West 391 450 36,000  Level Chicago Center
Fri 08:34:45 PM 41.1864 -86.1561 275° West 391 450 36,000  Level Chicago Center
Fri 08:35:47 PM 41.1956 -86.2961 275° West 382 440 36,000  Level Chicago Center
Fri 08:36:49 PM 41.2053 -86.4378 275° West 385 443 36,000  Level Chicago Center
Fri 08:37:51 PM 41.2139 -86.5800 275° West 387 445 36,000  Level Chicago Center
Fri 08:38:53 PM 41.2244 -86.7342 275° West 391 450 36,000  Level Chicago Center
Fri 08:39:55 PM 41.2322 -86.8742 274° West 383 441 36,000  Level Chicago Center
Fri 08:40:56 PM 41.2414 -87.0153 275° West 384 442 36,000  Level Chicago Center
Fri 08:41:58 PM 41.2494 -87.1567 274° West 386 444 36,000  Level Chicago Center
Fri 08:43:00 PM 41.2581 -87.3247 274° West 381 438 36,000  Level Chicago Center
Fri 08:44:02 PM 41.2664 -87.4658 275° West 383 441 36,000  Level Chicago Center
Fri 08:45:04 PM 41.2739 -87.6058 274° West 383 441 36,000  Level Chicago Center
Fri 08:46:06 PM 41.2817 -87.7458 274° West 382 440 36,000  Level Chicago Center
Fri 08:47:08 PM 41.2897 -87.8861 274° West 379 436 36,000  Level Chicago Center
Fri 08:48:10 PM 41.2964 -88.0275 274° West 378 435 36,000  Level Chicago Center
Fri 08:49:12 PM 41.3022 -88.1708 273° West 382 440 36,000  Level Chicago Center
Fri 08:50:14 PM 41.3092 -88.3114 274° West 379 436 36,000  Level Chicago Center
Fri 08:51:15 PM 41.3172 -88.4797 274° West 380 437 36,000  Level Chicago Center
Fri 08:52:17 PM 41.3239 -88.6186 274° West 378 435 36,000  Level Chicago Center
Fri 08:53:19 PM 41.3294 -88.7589 273° West 380 437 36,000  Level Chicago Center
Fri 08:54:21 PM 41.3356 -88.8992 273° West 382 440 36,000  Level Chicago Center
Fri 08:55:23 PM 41.3422 -89.0397 274° West 380 437 36,000  Level Chicago Center
Fri 08:56:25 PM 41.3475 -89.1833 273° West 387 445 36,000  Level Chicago Center
Fri 08:57:27 PM 41.3525 -89.3317 273° West 385 443 36,000  Level Chicago Center
Fri 08:58:28 PM 41.3578 -89.4756 273° West 388 447 36,000  Level Chicago Center
Fri 08:59:30 PM 41.3642 -89.6192 273° West 390 449 36,000  Level Chicago Center
Fri 09:00:32 PM 41.3711 -89.7922 273° West 392 451 36,000  Level Chicago Center
Fri 09:01:34 PM 41.3753 -89.9367 272° West 393 452 36,000  Level Chicago Center
Fri 09:02:36 PM 41.3800 -90.0825 273° West 394 453 36,000  Level Chicago Center
Fri 09:03:37 PM 41.3853 -90.2269 273° West 394 453 36,000  Level Chicago Center
Fri 09:04:39 PM 41.3908 -90.3728 273° West 395 455 36,000  Level Chicago Center
Fri 09:05:41 PM 41.3944 -90.5200 272° West 398 458 36,000  Level Chicago Center
Fri 09:06:43 PM 41.3978 -90.7022 271° West 417 480 36,000  Level Chicago Center
Fri 09:07:44 PM 41.4014 -90.8497 272° West 404 465 36,000  Level Chicago Center
Fri 09:08:46 PM 41.4133 -90.9992 276° West 407 468 36,000  Level Chicago Center
Fri 09:09:48 PM 41.4286 -91.1478 278° West 407 468 36,000  Level Chicago Center
Fri 09:10:49 PM 41.4431 -91.2967 277° West 407 468 36,000  Level Chicago Center
Fri 09:11:51 PM 41.4597 -91.4628 278° West 404 465 36,000  Level Chicago Center
Fri 09:12:53 PM 41.4731 -91.6086 277° West 398 458 36,000  Level Chicago Center
Fri 09:13:55 PM 41.4864 -91.7525 277° West 394 453 36,000  Level Chicago Center
Fri 09:14:56 PM 41.4994 -91.8969 277° West 394 453 36,000  Level Chicago Center
Fri 09:15:58 PM 41.5128 -92.0439 277° West 401 461 36,000  Level Chicago Center
Fri 09:17:00 PM 41.5256 -92.1914 277° West 403 464 36,000  Level Chicago Center
Fri 09:18:01 PM 41.5417 -92.3706 277° West 406 467 36,000  Level Chicago Center
Fri 09:19:03 PM 41.5542 -92.5200 276° West 407 468 36,000  Level Chicago Center
Fri 09:20:05 PM 41.5669 -92.6706 277° West 411 473 36,000  Level Chicago Center
Fri 09:21:06 PM 41.5775 -92.8106 276° West 410 472 36,000  Level Chicago Center
Fri 09:22:15 PM 41.5925 -92.9881 277° West 405 466 36,000  Level Minneapolis Center
Fri 09:23:17 PM 41.6042 -93.1344 276° West 401 461 36,000  Level Minneapolis Center
Fri 09:24:19 PM 41.6186 -93.3150 276° West 409 471 36,000  Level Minneapolis Center
Fri 09:25:20 PM 41.6297 -93.4653 276° West 410 472 36,000  Level Minneapolis Center
Fri 09:26:22 PM 41.6422 -93.6122 277° West 405 466 36,000  Level Minneapolis Center
Fri 09:27:24 PM 41.6533 -93.7625 276° West 409 471 36,000  Level Minneapolis Center
Fri 09:28:26 PM 41.6647 -93.9139 276° West 412 474 36,000  Level Minneapolis Center
Fri 09:29:28 PM 41.6753 -94.0656 275° West 413 475 36,000  Level Minneapolis Center
Fri 09:30:29 PM 41.6875 -94.2344 276° West 415 478 36,000  Level Minneapolis Center
Fri 09:31:31 PM 41.6978 -94.3892 275° West 417 480 36,000  Level Minneapolis Center
Fri 09:32:33 PM 41.7086 -94.5433 275° West 417 480 36,000  Level Minneapolis Center
Fri 09:33:35 PM 41.7197 -94.7297 275° West 419 482 36,000  Level Minneapolis Center
Fri 09:34:37 PM 41.7314 -94.8836 276° West 418 481 36,000  Level Minneapolis Center
Fri 09:35:38 PM 41.7406 -95.0342 275° West 408 470 36,000  Level Minneapolis Center
Fri 09:36:40 PM 41.7497 -95.1853 275° West 409 471 36,000  Level Minneapolis Center
Fri 09:37:42 PM 41.7589 -95.3367 275° West 409 471 36,000  Level Minneapolis Center
Fri 09:38:43 PM 41.7686 -95.4869 275° West 408 470 36,000  Level Minneapolis Center
Fri 09:39:45 PM 41.7781 -95.6672 274° West 406 467 36,000  Level Minneapolis Center
Fri 09:40:47 PM 41.7864 -95.8125 274° West 397 457 36,000  Level Minneapolis Center
Fri 09:41:49 PM 41.7947 -95.9586 274° West 396 456 36,000  Level Minneapolis Center
Fri 09:42:50 PM 41.8019 -96.1058 274° West 399 459 36,000  Level Minneapolis Center
Fri 09:43:52 PM 41.8103 -96.2522 274° West 399 459 36,000  Level Minneapolis Center
Fri 09:44:54 PM 41.8181 -96.3983 274° West 396 456 36,000  Level Minneapolis Center
Fri 09:45:55 PM 41.8264 -96.5742 274° West 396 456 36,000  Level Minneapolis Center
Fri 09:46:57 PM 41.8331 -96.7194 274° West 393 452 36,000  Level Minneapolis Center
Fri 09:47:59 PM 41.8406 -96.8664 274° West 396 456 36,000  Level Minneapolis Center
Fri 09:49:00 PM 41.8478 -97.0136 274° West 397 457 36,000  Level Minneapolis Center
Fri 09:50:02 PM 41.8539 -97.1631 273° West 400 460 36,000  Level Minneapolis Center
Fri 09:51:03 PM 41.8600 -97.3139 273° West 405 466 36,000  Level Minneapolis Center
Fri 09:52:05 PM 41.8672 -97.4653 274° West 407 468 36,000  Level Minneapolis Center
Fri 09:53:07 PM 41.8725 -97.6161 273° West 406 467 36,000  Level Minneapolis Center
Fri 09:54:08 PM 41.8803 -97.7967 273° West 405 466 36,000  Level Minneapolis Center
Fri 09:55:10 PM 41.8861 -97.9481 273° West 406 467 36,000  Level Minneapolis Center
Fri 09:56:12 PM 41.8919 -98.0994 273° West 408 470 36,000  Level Minneapolis Center
Fri 09:57:13 PM 41.8969 -98.2433 273° West 407 468 36,000  Level Minneapolis Center
Fri 09:58:15 PM 41.9022 -98.3953 273° West 408 470 36,000  Level Minneapolis Center
Fri 09:59:16 PM 41.8828 -98.5767 262° West 413 475 36,000  Level Minneapolis Center
Fri 10:00:18 PM 41.8603 -98.7236 258° West 408 470 36,000  Level Minneapolis Center
Fri 10:01:19 PM 41.8372 -98.8736 258° West 411 473 36,000  Level Minneapolis Center
Fri 10:02:21 PM 41.8133 -99.0217 258° West 409 471 36,000  Level Minneapolis Center
Fri 10:03:22 PM 41.7903 -99.1683 258° West 405 466 36,000  Level Minneapolis Center
Fri 10:04:03 PM 41.7711 -99.2872 258° West 406 467 36,000  Level Denver Center
Fri 10:05:05 PM 41.7475 -99.4331 258° West 404 465 36,000  Level Denver Center
Fri 10:06:07 PM 41.7236 -99.5819 258° West 408 470 36,000  Level Denver Center
Fri 10:07:09 PM 41.6997 -99.7294 258° West 407 468 36,000  Level Denver Center
Fri 10:08:11 PM 41.6711 -99.8961 257° West 410 472 36,000  Level Denver Center
Fri 10:09:13 PM 41.6469 -100.0367 257° West 409 471 36,000  Level Denver Center
Fri 10:10:15 PM 41.6189 -100.2036 257° West 412 474 36,000  Level Denver Center
Fri 10:11:17 PM 41.5958 -100.3444 258° West 409 471 36,000  Level Denver Center
Fri 10:12:19 PM 41.5664 -100.5122 257° West 416 479 36,000  Level Denver Center
Fri 10:13:21 PM 41.5419 -100.6542 257° West 413 475 36,000  Level Denver Center
Fri 10:14:23 PM 41.5108 -100.7942 254° West 413 475 36,000  Level Denver Center
Fri 10:15:25 PM 41.4614 -100.9522 247° West 416 479 36,000  Level Denver Center
Fri 10:16:27 PM 41.4197 -101.0894 248° West 418 481 36,000  Level Denver Center
Fri 10:17:29 PM 41.3719 -101.2478 248° West 415 478 36,000  Level Denver Center
Fri 10:18:31 PM 41.3308 -101.3828 248° West 415 478 36,000  Level Denver Center
Fri 10:19:32 PM 41.2839 -101.5383 248° West 408 470 36,000  Level Denver Center
Fri 10:20:34 PM 41.2411 -101.6708 247° West 409 471 36,000  Level Denver Center
Fri 10:21:36 PM 41.1939 -101.8244 248° West 405 466 36,000  Level Denver Center
Fri 10:22:50 PM 41.1533 -101.9564 248° West 404 465 36,000  Level Denver Center
Fri 10:23:53 PM 41.0997 -102.1303 248° West 400 460 36,000  Level Denver Center
Fri 10:24:54 PM 41.0525 -102.2817 248° West 399 459 36,000  Level Denver Center
Fri 10:25:56 PM 41.0019 -102.4086 242° Southwest 404 465 36,000  Level Denver Center
Fri 10:26:58 PM 40.9447 -102.5550 243° Southwest 402 463 36,000  Level Denver Center
Fri 10:28:00 PM 40.8944 -102.6806 242° Southwest 405 466 36,000  Level Denver Center
Fri 10:29:02 PM 40.8442 -102.8064 242° Southwest 405 466 36,000  Level Denver Center
Fri 10:30:04 PM 40.7850 -102.9517 242° Southwest 405 466 36,000  Level Denver Center
Fri 10:31:05 PM 40.7311 -103.0894 243° Southwest 408 470 36,000 -488 Level Denver Center
Fri 10:32:07 PM 40.6778 -103.2203 242° Southwest 404 465 35,000 -1,790 Descending Denver Center
Fri 10:33:09 PM 40.6228 -103.3589 242° Southwest 422 486 32,300 -2,371 Descending Denver Center
Fri 10:34:11 PM 40.5678 -103.4950 242° Southwest 418 481 30,100 -2,081 Descending Denver Center
Fri 10:35:13 PM 40.5106 -103.6306 241° Southwest 422 486 28,000 -2,195 Descending Denver Center
Fri 10:36:14 PM 40.4539 -103.7700 242° Southwest 428 493 25,600 -2,537 Descending Denver Center
Fri 10:37:16 PM 40.3889 -103.9292 242° Southwest 432 497 22,800 -2,468 Descending Denver Center
Fri 10:38:18 PM 40.3242 -104.0417 233° Southwest 377 434 20,500 -1,984 Descending Denver Center
Fri 10:39:20 PM 40.2508 -104.1217 220° Southwest 335 386 18,700 -1,659 Descending Denver Center
Fri 10:40:21 PM 40.1769 -104.2017 220° Southwest 322 371 17,100 -1,463 Descending Denver Center
Fri 10:41:23 PM 40.1108 -104.2736 220° Southwest 307 353 15,700 -1,210 Descending Denver Center
Fri 10:42:25 PM 40.0458 -104.3433 219° Southwest 302 348 14,600 -989 Descending Denver Center
Fri 10:42:54 PM 40.0167 -104.3833 226° Southwest 301 346 14,200 -607 Descending Denver TRACON
Fri 10:43:54 PM 39.9500 -104.4500 217° Southwest 290 334 13,700 -900 Descending Denver TRACON
Fri 10:44:54 PM 39.9500 -104.5500 270° West 262 302 12,400 -1,150 Descending Denver TRACON
Fri 10:45:54 PM 39.9500 -104.6500 270° West 256 295 11,400 -764 Descending Denver TRACON
Fri 10:46:44 PM 39.9478 -104.7161 268° West 244 281 11,000 -486 Descending Denver Center
Fri 10:47:45 PM 39.9464 -104.7933 269° West 218 251 10,500 -293 Descending Denver Center
Fri 10:48:47 PM 39.9442 -104.8511 267° West 158 182 10,400 -823 Descending Denver Center
Fri 10:49:49 PM 39.9194 -104.8864 228° Southwest 159 183 8,800 -1,463 Descending Denver Center
Fri 10:50:50 PM 39.8742 -104.8664 161° South 175 201 7,400 -1,024 Descending Denver Center
Fri 10:51:52 PM 39.8419 -104.8239 135° Southeast 154 177 6,700 -634 Descending Denver Center
Fri 10:52:53 PM 39.8414 -104.7703 91° East 148 170 6,100 -683 Descending Denver Center
Fri 10:53:55 PM 39.8406 -104.7206 91° East 133 153 5,300 -774 Descending Denver Center
Fri 10:55:00 PM 39.8617 -104.6732 60° Northeast  Level Estimated
Fri 11:02:00 PM 39.8617 -104.6732 142° Southeast  Level Estimated
Fri 11:03:00 PM 39.8617 -104.6732 142° Southeast  Level Estimated
Fri 11:04:00 PM 39.8617 -104.6732 142° Southeast  Level Estimated
Fri 11:05:00 PM 39.8617 -104.6732 142° Southeast  Level Estimated

Login

Don't have an account? Register now (free) for customized features, flight alerts, and more!